Main page
METAR-TAF:

METAR-TAF

Airports :

Skellefteå Airport

Skellefteå, Sweden

latitude: 64-38N, longitude: 021-05E, elevation: 49 m

Current weather observation

The report was made 33 minutes ago, at 22:50 UTC
Wind 17 kt from the West/Northwest with gusts up to 28 kt
Temperature 0°C
Humidity 64%
Pressure 997 hPa
Visibility 10 km or more

METAR: ESNS 212250Z AUTO 29017G28KT 9999 FEW130/// 00/M06 Q0997

Time: 00:23 (23:23 UTC)

Forecast

The report was made 2 hours and 53 minutes ago, at 20:30 UTC
Forecast valid from 21 at 21 UTC to 21 at 23 UTC
Wind 19 kt from the West with gusts up to 29 kt
Visibility 10 km or more
no clouds below 1500 m and no cumulonimbus
Becoming
from 21 at 21 UTC to 21 at 23 UTC
Wind 12 kt from the West

TAF: ESNS 212030Z 2121/2123 26019G29KT CAVOK BECMG 2121/2123 27012KT

Weather observations and forecasts of more than 4000 airports (METAR and TAF reports).

The available stations are represented by yellow and red dots on the map.

Hover mouse over dot to see the name of the station.

Then click to see weather observations and forecasts.

To change the map : click on the green buttons with a black cross to zoom in, on the green button with a dash to zoom out, or on the green arrows for adjacent maps.


METAR-TAF: